Ana Sayfa
METAR-TAF:

METAR-TAF

Havaalanları :

Kimble County Airport

Junction, Teksas, Amerika Birleşik Devletleri

Enlem: 30-30-39N, Boylam: 099-45-59W, yükseklik: 527 m

Güncel hava durumu gözlemi

Rapor saat 01:51 UTC de 35 dakika önce yapıldı.
Sakin rüzgar
Sıcaklık 11°C
Nem 62%
Basınç 1014 hPa
Görüş mesafesi: 16.1 km
Açık gökyüzü

METAR: KJCT 190151Z AUTO 00000KT 10SM CLR 11/04 A2994 RMK AO2 SLP126 T01110044

Saat: 20:26 (02:26 UTC)

Tahmin

Rapor saat 23:42 UTC de 2 saat ve 44 dakika önce yapıldı.
Ayın 19'si saat 00 UTC'den ayın 19'si saat 24 UTC'ye kadar geçerli Tahmin
Rüzgar değişken yönden 2 kt
Görüş mesafesi: 10 km
Açık gökyüzü

TAF: KJCT 182342Z 1900/1924 VRB02KT P6SM SKC

4.000'den fazla havaalanı için hava durumu gözlemleri ve tahminleri (METAR ve TAF raporları).

Kullanılabilir istasyonlar harita üzerinde sarı ve kırmızı noktalarla gösterilir.

İstasyonun adını görmek için fareyi noktanın üzerinde gezdirin.

Sonrasında hava gözlem ve tahminlerini görmek için tıklayın.

Haritayı değiştirmek için: yaklaştırmak için siyah artı işaretli yeşil düğmeye ve uzaklaştırmak için de eksi işaretli düğmeye hızla tıklayın; bitişik haritalar için yeşil okları kullanın.


METAR-TAF: